Time;durP1;ratioP1;P1;durP2;ratioP2;P2;SDS_P1;SDS_P2;PMS_P1;PMS_P2;Temp;Humidity;BMP_temperature;BMP_pressure;BME280_temperature;BME280_humidity;BME280_pressure;Samples;Min_cycle;Max_cycle;Signal;HPM_P1;HPM_P2
2021/07/10 00:00:02;;;;;;;;;;;;;;;;;;5090029;28;19916;-79
2021/07/10 00:02:28;;;;;;;;;;;;;;;;;;5090263;28;20315;-79
2021/07/10 00:04:54;;;;;;;;;;;;;;;;;;5089984;27;19912;-78
2021/07/10 00:07:20;;;;;;;;;;;;;;;;;;5089982;28;20003;-78
2021/07/10 00:09:46;;;;;;;;;;;;;;;;;;5088968;28;19919;-78
2021/07/10 00:12:12;;;;;;;;;;;;;;;;;;5089452;28;19912;-79
2021/07/10 00:14:37;;;;;;;;;;;;;;;;;;5089992;28;19912;-78
2021/07/10 00:17:03;;;;;;;;;;;;;;;;;;5088998;27;19912;-79
2021/07/10 00:19:29;;;;;;;;;;;;;;;;;;5087420;28;19989;-79
2021/07/10 00:21:55;;;;;;;;;;;;;;;;;;5090736;28;20011;-80
2021/07/10 00:24:21;;;;;;;;;;;;;;;;;;5088581;28;20360;-79
2021/07/10 00:26:47;;;;;;;;;;;;;;;;;;5089702;27;19912;-79
2021/07/10 00:29:13;;;;;;;;;;;;;;;;;;5089036;28;19937;-79
2021/07/10 00:31:39;;;;;;;;;;;;;;;;;;5090247;28;19929;-80
2021/07/10 00:34:04;;;;;;;;;;;;;;;;;;5089021;28;19923;-79
2021/07/10 00:36:30;;;;;;;;;;;;;;;;;;5089142;28;20384;-79
2021/07/10 00:38:56;;;;;;;;;;;;;;;;;;5089963;27;19970;-79
2021/07/10 00:41:22;;;;;;;;;;;;;;;;;;5088770;28;19982;-79
2021/07/10 00:43:48;;;;;;;;;;;;;;;;;;5087632;28;19927;-79
2021/07/10 00:46:15;;;;;;;;;;;;;;;;;;5089379;28;19912;-79
2021/07/10 00:48:41;;;;;;;;;;;;;;;;;;5089791;27;20278;-79
2021/07/10 00:51:07;;;;;;;;;;;;;;;;;;5089411;28;19916;-80
2021/07/10 00:53:33;;;;;;;;;;;;;;;;;;5087890;28;20018;-78
2021/07/10 00:55:59;;;;;;;;;;;;;;;;;;5089042;28;20031;-79
2021/07/10 00:58:25;;;;;;;;;;;;;;;;;;5089479;27;20396;-79
2021/07/10 01:00:50;;;;;;;;;;;;;;;;;;5087499;28;19912;-79
2021/07/10 01:03:16;;;;;;;;;;;;;;;;;;5089843;28;19923;-79
2021/07/10 01:05:42;;;;;;;;;;;;;;;;;;5089764;28;20351;-80
2021/07/10 01:08:08;;;;;;;;;;;;;;;;;;5081496;28;19958;-78
2021/07/10 01:10:34;;;;;;;;;;;;;;;;;;5088569;27;19919;-79
2021/07/10 01:13:00;;;;;;;;;;;;;;;;;;5089180;28;19913;-79
2021/07/10 01:15:26;;;;;;;;;;;;;;;;;;5089182;28;19912;-80
2021/07/10 01:17:53;;;;;;;;;;;;;;;;;;5090197;28;19916;-80
2021/07/10 01:20:19;;;;;;;;;;;;;;;;;;5079985;28;20277;-79
2021/07/10 01:22:45;;;;;;;;;;;;;;;;;;5087505;28;19977;-79
2021/07/10 01:25:11;;;;;;;;;;;;;;;;;;5089485;28;19965;-80
2021/07/10 01:27:37;;;;;;;;;;;;;;;;;;5089433;28;20278;-78
2021/07/10 01:30:03;;;;;;;;;;;;;;;;;;5092689;28;19920;-78
2021/07/10 01:32:29;;;;;;;;;;;;;;;;;;5093142;27;19912;-78
2021/07/10 01:34:55;;;;;;;;;;;;;;;;;;5090751;28;19922;-78
2021/07/10 01:37:21;;;;;;;;;;;;;;;;;;5092917;28;19965;-79
2021/07/10 01:39:46;;;;;;;;;;;;;;;;;;5091578;28;20270;-79
2021/07/10 01:42:12;;;;;;;;;;;;;;;;;;5092894;27;19999;-78
2021/07/10 01:44:38;;;;;;;;;;;;;;;;;;5091727;28;19916;-77
2021/07/10 01:47:04;;;;;;;;;;;;;;;;;;5090913;28;19954;-79
2021/07/10 01:49:30;;;;;;;;;;;;;;;;;;5090995;28;19958;-78
2021/07/10 01:51:56;;;;;;;;;;;;;;;;;;5092655;28;20444;-78
2021/07/10 01:54:22;;;;;;;;;;;;;;;;;;5091952;27;19919;-78
2021/07/10 01:56:47;;;;;;;;;;;;;;;;;;5092260;28;19920;-79
2021/07/10 01:59:13;;;;;;;;;;;;;;;;;;5091428;28;19974;-78
2021/07/10 02:01:39;;;;;;;;;;;;;;;;;;5091067;28;19912;-79
2021/07/10 02:04:08;;;;;;;;;;;;;;;;;;5091509;27;20432;-78
2021/07/10 02:06:33;;;;;;;;;;;;;;;;;;5092246;28;19912;-78
2021/07/10 02:08:59;;;;;;;;;;;;;;;;;;5093016;28;20266;-79
2021/07/10 02:11:25;;;;;;;;;;;;;;;;;;5090986;28;19939;-79
2021/07/10 02:13:51;;;;;;;;;;;;;;;;;;5092737;27;19919;-79
2021/07/10 02:16:17;;;;;;;;;;;;;;;;;;5090316;28;19916;-77
2021/07/10 02:18:43;;;;;;;;;;;;;;;;;;5092481;28;20011;-78
2021/07/10 02:21:09;;;;;;;;;;;;;;;;;;5092282;28;19923;-78
2021/07/10 02:23:35;;;;;;;;;;;;;;;;;;5093273;28;19999;-78
2021/07/10 02:26:01;;;;;;;;;;;;;;;;;;5091616;28;20339;-78
2021/07/10 02:28:27;;;;;;;;;;;;;;;;;;5091158;28;19912;-79
2021/07/10 02:30:53;;;;;;;;;;;;;;;;;;5089254;28;19942;-78
2021/07/10 02:33:19;;;;;;;;;;;;;;;;;;5092427;28;19915;-78
2021/07/10 02:35:44;;;;;;;;;;;;;;;;;;5089999;28;19919;-78
2021/07/10 02:38:10;;;;;;;;;;;;;;;;;;5091526;28;19919;-78
2021/07/10 02:40:36;;;;;;;;;;;;;;;;;;5090710;28;20765;-78
2021/07/10 02:43:02;;;;;;;;;;;;;;;;;;5092185;28;19912;-79
2021/07/10 02:45:28;;;;;;;;;;;;;;;;;;5093571;28;19912;-78
2021/07/10 02:47:54;;;;;;;;;;;;;;;;;;5089943;28;20366;-78
2021/07/10 02:50:20;;;;;;;;;;;;;;;;;;5090301;28;20006;-79
2021/07/10 02:52:46;;;;;;;;;;;;;;;;;;5091577;28;19995;-79
2021/07/10 02:55:12;;;;;;;;;;;;;;;;;;5091101;28;19912;-78
2021/07/10 02:57:37;;;;;;;;;;;;;;;;;;5089093;27;19928;-79
2021/07/10 03:00:03;;;;;;;;;;;;;;;;;;5089731;28;20427;-79
2021/07/10 03:02:29;;;;;;;;;;;;;;;;;;5091631;28;19957;-78
2021/07/10 03:04:55;;;;;;;;;;;;;;;;;;5091466;28;20286;-77
2021/07/10 03:07:21;;;;;;;;;;;;;;;;;;5091522;27;20025;-78
2021/07/10 03:09:47;;;;;;;;;;;;;;;;;;5091167;28;19909;-79
2021/07/10 03:12:13;;;;;;;;;;;;;;;;;;5088521;28;19912;-78
2021/07/10 03:14:39;;;;;;;;;;;;;;;;;;5091335;28;19939;-76
2021/07/10 03:17:04;;;;;;;;;;;;;;;;;;5100513;28;19995;-77
2021/07/10 03:19:30;;;;;;;;;;;;;;;;;;5091323;27;20374;-77
2021/07/10 03:21:56;;;;;;;;;;;;;;;;;;5090931;28;19923;-78
2021/07/10 03:24:22;;;;;;;;;;;;;;;;;;5090626;28;19912;-77
2021/07/10 03:26:48;;;;;;;;;;;;;;;;;;5093261;28;19922;-77
2021/07/10 03:29:14;;;;;;;;;;;;;;;;;;5090412;27;20310;-78
2021/07/10 03:31:40;;;;;;;;;;;;;;;;;;5088646;28;20007;-80
2021/07/10 03:34:06;;;;;;;;;;;;;;;;;;5089883;28;19982;-77
2021/07/10 03:36:31;;;;;;;;;;;;;;;;;;5091174;28;19912;-77
2021/07/10 03:38:57;;;;;;;;;;;;;;;;;;5089770;28;20015;-79
2021/07/10 03:41:23;;;;;;;;;;;;;;;;;;5088964;27;19916;-80
2021/07/10 03:43:49;;;;;;;;;;;;;;;;;;5090963;28;19920;-77
2021/07/10 03:46:15;;;;;;;;;;;;;;;;;;5090238;28;20020;-78
2021/07/10 03:48:41;;;;;;;;;;;;;;;;;;5090875;28;19970;-78
2021/07/10 03:51:07;;;;;;;;;;;;;;;;;;5089859;27;19912;-77
2021/07/10 03:53:33;;;;;;;;;;;;;;;;;;5089333;28;19958;-77
2021/07/10 03:55:59;;;;;;;;;;;;;;;;;;5089468;28;19916;-77
2021/07/10 03:58:25;;;;;;;;;;;;;;;;;;5089150;28;19928;-77
2021/07/10 04:00:51;;;;;;;;;;;;;;;;;;5089620;27;20333;-77
2021/07/10 04:03:17;;;;;;;;;;;;;;;;;;5088937;28;19958;-77
2021/07/10 04:05:43;;;;;;;;;;;;;;;;;;5090436;28;19912;-77
2021/07/10 04:08:09;;;;;;;;;;;;;;;;;;5089971;28;19912;-78
2021/07/10 04:10:35;;;;;;;;;;;;;;;;;;5089410;28;19961;-78
2021/07/10 04:13:00;;;;;;;;;;;;;;;;;;5089628;27;19912;-77
2021/07/10 04:15:26;;;;;;;;;;;;;;;;;;5089685;28;20307;-78
2021/07/10 04:17:52;;;;;;;;;;;;;;;;;;5089488;28;19912;-78
2021/07/10 04:20:18;;;;;;;;;;;;;;;;;;5090590;28;20009;-78
2021/07/10 04:22:44;;;;;;;;;;;;;;;;;;5089418;27;20366;-78
2021/07/10 04:25:10;;;;;;;;;;;;;;;;;;5089285;28;19958;-78
2021/07/10 04:27:38;;;;;;;;;;;;;;;;;;5089941;28;20580;-79
2021/07/10 04:30:03;;;;;;;;;;;;;;;;;;5090035;28;20287;-78
2021/07/10 04:32:29;;;;;;;;;;;;;;;;;;5089546;28;19912;-77
2021/07/10 04:34:55;;;;;;;;;;;;;;;;;;5087207;27;19924;-79
2021/07/10 04:37:21;;;;;;;;;;;;;;;;;;5090968;28;19934;-78
2021/07/10 04:39:47;;;;;;;;;;;;;;;;;;5089610;28;19920;-77
2021/07/10 04:42:13;;;;;;;;;;;;;;;;;;5088711;28;19923;-80
2021/07/10 04:44:39;;;;;;;;;;;;;;;;;;5089756;27;19916;-78
2021/07/10 04:47:05;;;;;;;;;;;;;;;;;;5089140;28;19908;-77
2021/07/10 04:49:31;;;;;;;;;;;;;;;;;;5089296;28;19912;-78
2021/07/10 04:51:57;;;;;;;;;;;;;;;;;;5089326;28;19959;-77
2021/07/10 04:54:22;;;;;;;;;;;;;;;;;;5089763;27;20351;-78
2021/07/10 04:56:48;;;;;;;;;;;;;;;;;;5088989;28;19920;-77
2021/07/10 04:59:14;;;;;;;;;;;;;;;;;;5088551;28;20451;-80
2021/07/10 05:01:40;;;;;;;;;;;;;;;;;;5089515;28;19957;-77
2021/07/10 05:04:06;;;;;;;;;;;;;;;;;;5091449;28;19916;-77
2021/07/10 05:06:32;;;;;;;;;;;;;;;;;;5091583;27;20030;-78
2021/07/10 05:08:58;;;;;;;;;;;;;;;;;;5093387;28;20612;-77
2021/07/10 05:11:24;;;;;;;;;;;;;;;;;;5093128;28;19912;-77
2021/07/10 05:13:49;;;;;;;;;;;;;;;;;;5093984;28;19918;-78
2021/07/10 05:16:15;;;;;;;;;;;;;;;;;;5093048;27;19912;-77
2021/07/10 05:18:41;;;;;;;;;;;;;;;;;;5092095;28;20338;-77
2021/07/10 05:21:07;;;;;;;;;;;;;;;;;;5094498;28;19923;-77
2021/07/10 05:23:33;;;;;;;;;;;;;;;;;;5093611;28;20283;-77
2021/07/10 05:25:59;;;;;;;;;;;;;;;;;;5092715;28;19920;-77
2021/07/10 05:28:25;;;;;;;;;;;;;;;;;;5091905;27;19913;-80
2021/07/10 05:30:51;;;;;;;;;;;;;;;;;;5093103;28;19924;-76
2021/07/10 05:33:17;;;;;;;;;;;;;;;;;;5090923;28;19959;-77
2021/07/10 05:35:44;;;;;;;;;;;;;;;;;;5091592;28;19959;-77
2021/07/10 05:38:10;;;;;;;;;;;;;;;;;;5093033;27;19981;-77
2021/07/10 05:40:36;;;;;;;;;;;;;;;;;;5092709;28;20755;-77
2021/07/10 05:43:02;;;;;;;;;;;;;;;;;;5091676;28;19918;-78
2021/07/10 05:45:28;;;;;;;;;;;;;;;;;;5092797;28;19924;-77
2021/07/10 05:47:54;;;;;;;;;;;;;;;;;;5090985;27;20386;-76
2021/07/10 05:50:20;;;;;;;;;;;;;;;;;;5091090;28;19916;-78
2021/07/10 05:52:46;;;;;;;;;;;;;;;;;;5093639;28;19932;-77
2021/07/10 05:55:11;;;;;;;;;;;;;;;;;;5092136;28;19916;-78
2021/07/10 05:57:37;;;;;;;;;;;;;;;;;;5092495;28;19924;-77
2021/07/10 06:00:03;;;;;;;;;;;;;;;;;;5090376;28;19977;-77
2021/07/10 06:02:29;;;;;;;;;;;;;;;;;;5091982;28;19912;-80
2021/07/10 06:04:55;;;;;;;;;;;;;;;;;;5092059;28;19977;-76
2021/07/10 06:07:21;;;;;;;;;;;;;;;;;;5093040;28;19916;-77
2021/07/10 06:09:47;;;;;;;;;;;;;;;;;;5091735;27;19970;-79
2021/07/10 06:12:13;;;;;;;;;;;;;;;;;;5091894;28;20278;-77
2021/07/10 06:14:38;;;;;;;;;;;;;;;;;;5091544;28;19916;-77
2021/07/10 06:17:04;;;;;;;;;;;;;;;;;;5091099;28;19920;-78
2021/07/10 06:19:30;;;;;;;;;;;;;;;;;;5090962;28;20002;-77
2021/07/10 06:21:56;;;;;;;;;;;;;;;;;;5078998;27;20114;-77
2021/07/10 06:24:23;;;;;;;;;;;;;;;;;;5088097;28;20355;-77
2021/07/10 06:26:49;;;;;;;;;;;;;;;;;;5093556;28;19916;-77
2021/07/10 06:29:15;;;;;;;;;;;;;;;;;;5091977;28;19969;-76
2021/07/10 06:31:40;;;;;;;;;;;;;;;;;;5094648;27;20361;-77
2021/07/10 06:34:06;;;;;;;;;;;;;;;;;;5086487;28;19916;-76
2021/07/10 06:36:33;;;;;;;;;;;;;;;;;;5092007;28;19957;-77
2021/07/10 06:38:58;;;;;;;;;;;;;;;;;;5090004;28;19946;-79
2021/07/10 06:41:24;;;;;;;;;;;;;;;;;;5093983;27;19912;-79
2021/07/10 06:43:50;;;;;;;;;;;;;;;;;;5112311;28;20350;-78
2021/07/10 06:46:16;;;;;;;;;;;;;;;;;;5101382;28;20038;-78
2021/07/10 06:48:42;;;;;;;;;;;;;;;;;;5092714;28;19974;-78
2021/07/10 06:51:08;;;;;;;;;;;;;;;;;;5089647;28;20022;-79
2021/07/10 06:53:34;;;;;;;;;;;;;;;;;;5088057;27;19916;-79
2021/07/10 06:56:00;;;;;;;;;;;;;;;;;;5091845;28;19920;-78
2021/07/10 06:58:26;;;;;;;;;;;;;;;;;;5092223;28;20485;-78
2021/07/10 07:00:51;;;;;;;;;;;;;;;;;;5091580;28;19912;-78
2021/07/10 07:03:17;;;;;;;;;;;;;;;;;;5087101;27;20109;-77
2021/07/10 07:05:43;;;;;;;;;;;;;;;;;;5089421;28;19957;-78
2021/07/10 07:08:09;;;;;;;;;;;;;;;;;;5092567;28;20350;-79
2021/07/10 07:10:35;;;;;;;;;;;;;;;;;;5091490;28;19908;-79
2021/07/10 07:13:01;;;;;;;;;;;;;;;;;;5090995;27;20014;-81
2021/07/10 07:15:27;;;;;;;;;;;;;;;;;;5090696;28;19912;-79
2021/07/10 07:17:53;;;;;;;;;;;;;;;;;;5086332;28;20286;-79
2021/07/10 07:20:19;;;;;;;;;;;;;;;;;;5074450;28;19942;-74
2021/07/10 07:22:47;;;;;;;;;;;;;;;;;;5072724;28;20263;-73
2021/07/10 07:25:12;;;;;;;;;;;;;;;;;;5118185;27;19995;-73
2021/07/10 07:27:38;;;;;;;;;;;;;;;;;;5091052;28;20011;-73
2021/07/10 07:30:04;;;;;;;;;;;;;;;;;;5090952;28;19920;-74
2021/07/10 07:32:30;;;;;;;;;;;;;;;;;;5091355;28;19916;-73
2021/07/10 07:34:56;;;;;;;;;;;;;;;;;;5090755;27;19919;-73
2021/07/10 07:37:22;;;;;;;;;;;;;;;;;;5088907;28;19924;-75
2021/07/10 07:39:48;;;;;;;;;;;;;;;;;;5091259;28;20511;-76
2021/07/10 07:42:14;;;;;;;;;;;;;;;;;;5091250;28;19912;-76
2021/07/10 07:44:41;;;;;;;;;;;;;;;;;;5089215;27;19960;-75
2021/07/10 07:47:07;;;;;;;;;;;;;;;;;;5089329;28;19927;-72
2021/07/10 07:49:33;;;;;;;;;;;;;;;;;;5090805;28;19916;-75
2021/07/10 07:51:59;;;;;;;;;;;;;;;;;;5090076;28;19981;-75
2021/07/10 07:54:27;;;;;;;;;;;;;;;;;;5090673;28;19916;-76
2021/07/10 07:56:53;;;;;;;;;;;;;;;;;;5090666;27;19928;-74
2021/07/10 07:59:19;;;;;;;;;;;;;;;;;;5089630;28;19977;-72
2021/07/10 08:01:45;;;;;;;;;;;;;;;;;;5088599;28;20313;-78
2021/07/10 08:04:11;;;;;;;;;;;;;;;;;;5089803;28;19999;-76
2021/07/10 08:06:37;;;;;;;;;;;;;;;;;;5090635;27;19950;-75
2021/07/10 08:09:03;;;;;;;;;;;;;;;;;;5090640;28;19908;-77
2021/07/10 08:11:29;;;;;;;;;;;;;;;;;;5097299;28;19969;-77
2021/07/10 08:13:55;;;;;;;;;;;;;;;;;;5115764;28;19919;-75
2021/07/10 08:16:21;;;;;;;;;;;;;;;;;;5105998;28;20377;-72
2021/07/10 08:18:46;;;;;;;;;;;;;;;;;;5090782;28;19920;-77
2021/07/10 08:21:13;;;;;;;;;;;;;;;;;;5090741;28;19912;-76
2021/07/10 08:23:39;;;;;;;;;;;;;;;;;;5090988;28;19918;-76
2021/07/10 08:26:04;;;;;;;;;;;;;;;;;;5087859;28;19908;-77
2021/07/10 08:28:30;;;;;;;;;;;;;;;;;;5087851;27;20432;-75
2021/07/10 08:30:56;;;;;;;;;;;;;;;;;;5086748;28;20001;-76
2021/07/10 08:33:22;;;;;;;;;;;;;;;;;;5090461;28;19908;-74
2021/07/10 08:35:48;;;;;;;;;;;;;;;;;;5089790;28;19920;-74
2021/07/10 08:38:14;;;;;;;;;;;;;;;;;;5090790;27;20435;-75
2021/07/10 08:40:40;;;;;;;;;;;;;;;;;;5092365;28;19930;-75
2021/07/10 08:43:06;;;;;;;;;;;;;;;;;;5081188;28;19919;-74
2021/07/10 08:45:32;;;;;;;;;;;;;;;;;;5092425;28;19916;-75
2021/07/10 08:47:57;;;;;;;;;;;;;;;;;;5087492;28;19912;-79
2021/07/10 08:50:23;;;;;;;;;;;;;;;;;;5095660;27;19912;-79
2021/07/10 08:52:49;;;;;;;;;;;;;;;;;;5092745;28;20003;-80
2021/07/10 08:55:15;;;;;;;;;;;;;;;;;;5093384;28;20415;-80
2021/07/10 08:57:41;;;;;;;;;;;;;;;;;;5093102;28;19931;-77
2021/07/10 09:00:07;;;;;;;;;;;;;;;;;;5091000;28;20374;-77
2021/07/10 09:02:33;;;;;;;;;;;;;;;;;;5093633;28;19957;-77
2021/07/10 09:04:59;;;;;;;;;;;;;;;;;;5093839;28;19954;-77
2021/07/10 09:07:25;;;;;;;;;;;;;;;;;;5094002;28;19915;-77
2021/07/10 09:09:51;;;;;;;;;;;;;;;;;;5094343;27;20269;-76
2021/07/10 09:12:17;;;;;;;;;;;;;;;;;;5094966;28;19919;-76
2021/07/10 09:14:43;;;;;;;;;;;;;;;;;;5093694;28;19912;-76
2021/07/10 09:17:09;;;;;;;;;;;;;;;;;;5094009;28;20383;-76
2021/07/10 09:19:35;;;;;;;;;;;;;;;;;;5093789;28;19920;-76
2021/07/10 09:22:00;;;;;;;;;;;;;;;;;;5093463;27;19962;-76
2021/07/10 09:24:28;;;;;;;;;;;;;;;;;;5093609;28;19912;-76
2021/07/10 09:26:54;;;;;;;;;;;;;;;;;;5093999;28;19919;-77
2021/07/10 09:29:19;;;;;;;;;;;;;;;;;;5092486;28;19912;-76
2021/07/10 09:31:45;;;;;;;;;;;;;;;;;;5091815;28;19920;-76
2021/07/10 09:34:11;;;;;;;;;;;;;;;;;;5092799;28;20322;-76
2021/07/10 09:36:37;;;;;;;;;;;;;;;;;;5093118;28;19931;-77
2021/07/10 09:39:03;;;;;;;;;;;;;;;;;;5093135;28;19924;-77
2021/07/10 09:41:29;;;;;;;;;;;;;;;;;;5093842;28;20354;-77
2021/07/10 09:43:56;;;;;;;;;;;;;;;;;;5092358;27;19909;-76
2021/07/10 09:46:22;;;;;;;;;;;;;;;;;;5092521;28;20018;-77
2021/07/10 09:48:48;;;;;;;;;;;;;;;;;;5092802;28;19940;-75
2021/07/10 09:51:14;;;;;;;;;;;;;;;;;;5090918;28;20438;-74
2021/07/10 09:53:39;;;;;;;;;;;;;;;;;;5105590;27;19912;-75
2021/07/10 09:56:05;;;;;;;;;;;;;;;;;;5110807;28;19978;-76
2021/07/10 09:58:31;;;;;;;;;;;;;;;;;;5126318;27;19916;-76
2021/07/10 10:00:57;;;;;;;;;;;;;;;;;;5092999;28;19908;-77
2021/07/10 10:03:23;;;;;;;;;;;;;;;;;;5091783;27;19969;-77
2021/07/10 10:05:49;;;;;;;;;;;;;;;;;;5089636;28;19908;-76
2021/07/10 10:08:15;;;;;;;;;;;;;;;;;;5086692;28;19912;-76
2021/07/10 10:10:44;;;;;;;;;;;;;;;;;;5113724;28;19915;-77
2021/07/10 10:13:10;;;;;;;;;;;;;;;;;;5101470;28;20362;-78
2021/07/10 10:15:35;;;;;;;;;;;;;;;;;;5091579;27;19916;-76
2021/07/10 10:18:01;;;;;;;;;;;;;;;;;;5092888;28;19908;-78
2021/07/10 10:20:27;;;;;;;;;;;;;;;;;;5093576;28;19923;-77
2021/07/10 10:22:53;;;;;;;;;;;;;;;;;;5091516;28;19908;-77
2021/07/10 10:25:19;;;;;;;;;;;;;;;;;;5104350;28;20003;-76
2021/07/10 10:27:45;;;;;;;;;;;;;;;;;;5102785;28;20362;-76
2021/07/10 10:30:11;;;;;;;;;;;;;;;;;;5093039;28;19970;-77
2021/07/10 10:32:37;;;;;;;;;;;;;;;;;;5092165;28;19912;-77
2021/07/10 10:35:02;;;;;;;;;;;;;;;;;;5090572;27;19912;-77
2021/07/10 10:37:28;;;;;;;;;;;;;;;;;;5091870;28;19912;-77
2021/07/10 10:39:54;;;;;;;;;;;;;;;;;;5091302;28;19920;-76
2021/07/10 10:42:20;;;;;;;;;;;;;;;;;;5089357;28;19916;-76
2021/07/10 10:44:47;;;;;;;;;;;;;;;;;;5091369;28;19919;-78
2021/07/10 10:47:13;;;;;;;;;;;;;;;;;;5092122;28;19923;-77
2021/07/10 10:49:39;;;;;;;;;;;;;;;;;;5091590;28;19912;-77
2021/07/10 10:52:05;;;;;;;;;;;;;;;;;;5092419;28;19908;-77
2021/07/10 10:54:31;;;;;;;;;;;;;;;;;;5091832;28;20396;-78
2021/07/10 10:56:56;;;;;;;;;;;;;;;;;;5089661;28;19962;-77
2021/07/10 10:59:22;;;;;;;;;;;;;;;;;;5099326;28;19920;-76
2021/07/10 11:01:48;;;;;;;;;;;;;;;;;;5091570;28;19917;-74
2021/07/10 11:04:14;;;;;;;;;;;;;;;;;;5092576;28;19927;-76
2021/07/10 11:06:40;;;;;;;;;;;;;;;;;;5092592;28;20307;-77
2021/07/10 11:09:06;;;;;;;;;;;;;;;;;;5092670;28;19915;-76
2021/07/10 11:11:32;;;;;;;;;;;;;;;;;;5088560;28;19924;-76
2021/07/10 11:13:58;;;;;;;;;;;;;;;;;;5106475;28;19916;-76
2021/07/10 11:16:24;;;;;;;;;;;;;;;;;;5110896;27;20369;-75
2021/07/10 11:18:50;;;;;;;;;;;;;;;;;;5113904;28;19941;-76
2021/07/10 11:21:15;;;;;;;;;;;;;;;;;;5097859;28;19908;-78
2021/07/10 11:23:41;;;;;;;;;;;;;;;;;;5092013;28;20354;-79
2021/07/10 11:26:07;;;;;;;;;;;;;;;;;;5090046;28;19923;-79
2021/07/10 11:28:33;;;;;;;;;;;;;;;;;;5089715;28;19912;-78
2021/07/10 11:30:59;;;;;;;;;;;;;;;;;;5088209;28;19916;-78
2021/07/10 11:33:25;;;;;;;;;;;;;;;;;;5091602;28;19938;-77
2021/07/10 11:35:51;;;;;;;;;;;;;;;;;;5091205;28;19916;-78
2021/07/10 11:38:17;;;;;;;;;;;;;;;;;;5091437;27;19920;-77
2021/07/10 11:40:43;;;;;;;;;;;;;;;;;;5089464;28;20634;-78
2021/07/10 11:43:08;;;;;;;;;;;;;;;;;;5077049;28;19912;-79
2021/07/10 11:45:34;;;;;;;;;;;;;;;;;;5076616;28;20026;-78
2021/07/10 11:48:00;;;;;;;;;;;;;;;;;;5091234;27;19951;-76
2021/07/10 11:50:26;;;;;;;;;;;;;;;;;;5091637;28;19943;-74
2021/07/10 11:52:52;;;;;;;;;;;;;;;;;;5090554;28;19959;-75
2021/07/10 11:55:18;;;;;;;;;;;;;;;;;;5090305;28;19967;-74
2021/07/10 11:57:44;;;;;;;;;;;;;;;;;;5091050;28;19916;-74
2021/07/10 12:00:10;;;;;;;;;;;;;;;;;;5089107;27;20297;-73
2021/07/10 12:02:36;;;;;;;;;;;;;;;;;;5088271;28;19918;-74
2021/07/10 12:05:02;;;;;;;;;;;;;;;;;;5088488;28;19919;-77
2021/07/10 12:07:28;;;;;;;;;;;;;;;;;;5091759;28;19908;-75
2021/07/10 12:09:53;;;;;;;;;;;;;;;;;;5091403;27;19919;-74
2021/07/10 12:12:19;;;;;;;;;;;;;;;;;;5089452;28;19912;-75
2021/07/10 12:14:45;;;;;;;;;;;;;;;;;;5089972;28;19959;-77
2021/07/10 12:17:11;;;;;;;;;;;;;;;;;;5088975;28;19920;-79
2021/07/10 12:19:37;;;;;;;;;;;;;;;;;;5087743;28;19924;-77
2021/07/10 12:22:03;;;;;;;;;;;;;;;;;;5089425;27;19950;-77
2021/07/10 12:24:29;;;;;;;;;;;;;;;;;;5089484;28;19920;-77
2021/07/10 12:26:55;;;;;;;;;;;;;;;;;;5088206;28;20343;-76
2021/07/10 12:29:20;;;;;;;;;;;;;;;;;;5090370;28;19966;-77
2021/07/10 12:31:46;;;;;;;;;;;;;;;;;;5090261;27;20014;-77
2021/07/10 12:34:15;;;;;;;;;;;;;;;;;;5102542;28;20396;-74
2021/07/10 12:36:41;;;;;;;;;;;;;;;;;;5097964;28;19947;-77
2021/07/10 12:39:07;;;;;;;;;;;;;;;;;;5088716;28;19967;-77
2021/07/10 12:41:33;;;;;;;;;;;;;;;;;;5089831;27;19961;-78
2021/07/10 12:43:59;;;;;;;;;;;;;;;;;;5089832;28;20402;-74
2021/07/10 12:46:25;;;;;;;;;;;;;;;;;;5085263;28;20358;-74
2021/07/10 12:48:51;;;;;;;;;;;;;;;;;;5083523;28;19965;-74
2021/07/10 12:51:16;;;;;;;;;;;;;;;;;;5108638;28;19908;-75
2021/07/10 12:53:42;;;;;;;;;;;;;;;;;;5090218;27;19912;-74
2021/07/10 12:56:11;;;;;;;;;;;;;;;;;;5086610;28;19916;-74
2021/07/10 12:58:37;;;;;;;;;;;;;;;;;;5089435;28;19924;-74
2021/07/10 13:01:03;;;;;;;;;;;;;;;;;;5089538;28;19908;-74
2021/07/10 13:03:29;;;;;;;;;;;;;;;;;;5090251;28;19994;-73
2021/07/10 13:05:55;;;;;;;;;;;;;;;;;;5088176;28;19908;-74
2021/07/10 13:08:24;;;;;;;;;;;;;;;;;;5089308;28;20315;-75
2021/07/10 13:10:49;;;;;;;;;;;;;;;;;;5088493;28;19919;-76
2021/07/10 13:13:15;;;;;;;;;;;;;;;;;;5090008;28;19908;-75
2021/07/10 13:15:41;;;;;;;;;;;;;;;;;;5089816;28;19908;-74
2021/07/10 13:18:07;;;;;;;;;;;;;;;;;;5088665;28;20022;-75
2021/07/10 13:20:33;;;;;;;;;;;;;;;;;;5090792;28;19963;-75
2021/07/10 13:22:59;;;;;;;;;;;;;;;;;;5088195;28;19960;-74
2021/07/10 13:25:25;;;;;;;;;;;;;;;;;;5090979;27;19912;-74
2021/07/10 13:27:51;;;;;;;;;;;;;;;;;;5093621;28;19915;-77
2021/07/10 13:30:18;;;;;;;;;;;;;;;;;;5094251;28;20136;-77
2021/07/10 13:32:44;;;;;;;;;;;;;;;;;;5094035;28;19908;-78
2021/07/10 13:35:09;;;;;;;;;;;;;;;;;;5093406;28;19908;-78
2021/07/10 13:37:36;;;;;;;;;;;;;;;;;;5093327;28;20023;-77
2021/07/10 13:40:02;;;;;;;;;;;;;;;;;;5092639;28;20285;-79
2021/07/10 13:42:27;;;;;;;;;;;;;;;;;;5093572;28;19919;-78
2021/07/10 13:44:53;;;;;;;;;;;;;;;;;;5093222;28;19934;-78
2021/07/10 13:47:19;;;;;;;;;;;;;;;;;;5093723;28;20006;-78
2021/07/10 13:49:45;;;;;;;;;;;;;;;;;;5093080;28;19908;-79
2021/07/10 13:52:11;;;;;;;;;;;;;;;;;;5093615;28;19935;-76
2021/07/10 13:54:37;;;;;;;;;;;;;;;;;;5090888;28;19912;-75
2021/07/10 13:57:03;;;;;;;;;;;;;;;;;;5092657;28;19927;-76
2021/07/10 13:59:29;;;;;;;;;;;;;;;;;;5092525;28;19948;-76
2021/07/10 14:01:54;;;;;;;;;;;;;;;;;;5093643;28;20254;-77
2021/07/10 14:04:20;;;;;;;;;;;;;;;;;;5091522;28;19908;-76
2021/07/10 14:06:46;;;;;;;;;;;;;;;;;;5093502;27;19908;-77
2021/07/10 14:09:12;;;;;;;;;;;;;;;;;;5092407;28;19923;-76
2021/07/10 14:11:38;;;;;;;;;;;;;;;;;;5092438;28;19958;-76
2021/07/10 14:14:04;;;;;;;;;;;;;;;;;;5093141;28;19908;-77
2021/07/10 14:16:31;;;;;;;;;;;;;;;;;;5092502;27;19909;-77
2021/07/10 14:18:57;;;;;;;;;;;;;;;;;;5093480;28;20719;-77
2021/07/10 14:21:23;;;;;;;;;;;;;;;;;;5092399;28;19998;-77
2021/07/10 14:23:49;;;;;;;;;;;;;;;;;;5091253;28;20006;-76
2021/07/10 14:26:14;;;;;;;;;;;;;;;;;;5092298;28;19919;-75
2021/07/10 14:28:40;;;;;;;;;;;;;;;;;;5091448;27;20437;-76
2021/07/10 14:31:06;;;;;;;;;;;;;;;;;;5092359;28;19927;-76
2021/07/10 14:33:32;;;;;;;;;;;;;;;;;;5092055;28;19912;-75
2021/07/10 14:35:58;;;;;;;;;;;;;;;;;;5088845;28;19942;-77
2021/07/10 14:38:24;;;;;;;;;;;;;;;;;;5093007;28;19908;-79
2021/07/10 14:40:50;;;;;;;;;;;;;;;;;;5092868;28;19969;-79
2021/07/10 14:43:15;;;;;;;;;;;;;;;;;;5091478;28;19951;-78
2021/07/10 14:45:41;;;;;;;;;;;;;;;;;;5092216;28;20270;-78
2021/07/10 14:48:07;;;;;;;;;;;;;;;;;;5092458;28;19920;-78
2021/07/10 14:50:33;;;;;;;;;;;;;;;;;;5091357;28;19912;-78
2021/07/10 14:53:00;;;;;;;;;;;;;;;;;;5091226;28;19960;-79
2021/07/10 14:55:26;;;;;;;;;;;;;;;;;;5091435;28;19916;-80
2021/07/10 14:57:52;;;;;;;;;;;;;;;;;;5092607;28;19962;-76
2021/07/10 15:00:18;;;;;;;;;;;;;;;;;;5091169;27;20374;-75
2021/07/10 15:02:44;;;;;;;;;;;;;;;;;;5090576;28;20270;-77
2021/07/10 15:05:10;;;;;;;;;;;;;;;;;;5091387;28;19908;-77
2021/07/10 15:07:36;;;;;;;;;;;;;;;;;;5092350;28;20471;-77
2021/07/10 15:10:01;;;;;;;;;;;;;;;;;;5091784;27;20286;-77
2021/07/10 15:12:27;;;;;;;;;;;;;;;;;;5103221;28;19918;-77
2021/07/10 15:14:53;;;;;;;;;;;;;;;;;;5110875;28;20103;-77
2021/07/10 15:17:19;;;;;;;;;;;;;;;;;;5092299;28;20358;-77
2021/07/10 15:19:45;;;;;;;;;;;;;;;;;;5091964;27;19915;-76
2021/07/10 15:22:11;;;;;;;;;;;;;;;;;;5092182;28;19953;-77
2021/07/10 15:24:37;;;;;;;;;;;;;;;;;;5090866;28;19943;-77
2021/07/10 15:27:03;;;;;;;;;;;;;;;;;;5089585;28;20307;-77
2021/07/10 15:29:28;;;;;;;;;;;;;;;;;;5090572;28;19920;-77
2021/07/10 15:31:54;;;;;;;;;;;;;;;;;;5090091;28;20377;-77
2021/07/10 15:34:20;;;;;;;;;;;;;;;;;;5091290;28;19912;-77
2021/07/10 15:36:46;;;;;;;;;;;;;;;;;;5090201;28;19919;-77
2021/07/10 15:39:12;;;;;;;;;;;;;;;;;;5091450;28;19912;-78
2021/07/10 15:41:38;;;;;;;;;;;;;;;;;;5090438;27;20354;-75
2021/07/10 15:44:04;;;;;;;;;;;;;;;;;;5091803;28;19908;-77
2021/07/10 15:46:30;;;;;;;;;;;;;;;;;;5090229;28;19908;-76
2021/07/10 15:48:55;;;;;;;;;;;;;;;;;;5090289;28;20018;-76
2021/07/10 15:51:21;;;;;;;;;;;;;;;;;;5090778;28;19911;-77
2021/07/10 15:53:47;;;;;;;;;;;;;;;;;;5091556;28;19908;-76
2021/07/10 15:56:13;;;;;;;;;;;;;;;;;;5090341;28;19920;-77
2021/07/10 15:58:39;;;;;;;;;;;;;;;;;;5105920;28;19919;-77
2021/07/10 16:01:05;;;;;;;;;;;;;;;;;;5111457;28;19907;-76
2021/07/10 16:03:31;;;;;;;;;;;;;;;;;;5103415;27;19912;-77
2021/07/10 16:05:57;;;;;;;;;;;;;;;;;;5109698;28;19907;-77
2021/07/10 16:08:23;;;;;;;;;;;;;;;;;;5110886;28;20246;-77
2021/07/10 16:10:48;;;;;;;;;;;;;;;;;;5111705;28;19912;-76
2021/07/10 16:13:14;;;;;;;;;;;;;;;;;;5111113;27;19904;-76
2021/07/10 16:15:40;;;;;;;;;;;;;;;;;;5111183;28;19934;-76
2021/07/10 16:18:06;;;;;;;;;;;;;;;;;;5105220;28;20006;-77
2021/07/10 16:20:32;;;;;;;;;;;;;;;;;;5091414;28;20483;-77
2021/07/10 16:22:59;;;;;;;;;;;;;;;;;;5090772;27;19916;-75
2021/07/10 16:25:26;;;;;;;;;;;;;;;;;;5091245;28;20358;-76
2021/07/10 16:27:51;;;;;;;;;;;;;;;;;;5093260;28;19915;-76
2021/07/10 16:30:17;;;;;;;;;;;;;;;;;;5094935;28;19924;-75
2021/07/10 16:32:43;;;;;;;;;;;;;;;;;;5090362;27;20003;-78
2021/07/10 16:35:09;;;;;;;;;;;;;;;;;;5086712;28;19913;-75